Flight Track Log - Related Links

Times and Time Zones

All times are in EST time to prevent confusion due to time zone crossing. See the ADR705 flight status page for this flight to view local times or setup timezone preferences in your user account.

Time Position Orientation Groundspeed Altitude Reporting Facility
EST Latitude Longitude Course Direction KTS MPH feet Rate Location/Type
Sun 10:31:00 AM 41.8687 19.2686 324° Northwest  Level Estimated
Sun 10:32:00 AM 41.9442 19.1926 323° Northwest  Level Estimated
Sun 10:33:00 AM 42.0197 19.1165 323° Northwest  Level Estimated
Sun 10:34:00 AM 42.0951 19.0402 323° Northwest  Level Estimated
Sun 10:35:00 AM 42.1704 18.9637 323° Northwest  Level Estimated
Sun 10:36:00 AM 42.2457 18.8870 323° Northwest  Level Estimated
Sun 10:37:00 AM 42.3209 18.8102 323° Northwest  Level Estimated
Sun 10:38:00 AM 42.3961 18.7331 323° Northwest  Level Estimated
Sun 10:39:00 AM 42.4712 18.6559 323° Northwest  Level Estimated
Sun 10:40:00 AM 42.5463 18.5785 323° Northwest  Level Estimated
Sun 10:41:00 AM 42.6213 18.5009 323° Northwest  Level Estimated
Sun 10:42:00 AM 42.6963 18.4231 323° Northwest  Level Estimated
Sun 10:43:00 AM 42.7713 18.3451 323° Northwest  Level Estimated
Sun 10:44:00 AM 42.8461 18.2669 323° Northwest  Level Estimated
Sun 10:45:00 AM 42.9209 18.1886 323° Northwest  Level Estimated
Sun 10:46:00 AM 42.9957 18.1100 322° Northwest  Level Estimated
Sun 10:47:00 AM 43.0704 18.0313 322° Northwest  Level Estimated
Sun 10:48:00 AM 43.1451 17.9524 322° Northwest  Level Estimated
Sun 10:49:00 AM 43.2197 17.8732 322° Northwest  Level Estimated
Sun 10:50:00 AM 43.2942 17.7939 322° Northwest  Level Estimated
Sun 10:51:00 AM 43.3687 17.7144 322° Northwest  Level Estimated
Sun 10:52:00 AM 43.4431 17.6347 322° Northwest  Level Estimated
Sun 10:53:00 AM 43.5175 17.5548 322° Northwest  Level Estimated
Sun 10:54:00 AM 43.5919 17.4747 322° Northwest  Level Estimated
Sun 10:55:00 AM 43.6661 17.3944 322° Northwest  Level Estimated
Sun 10:56:00 AM 43.7403 17.3139 322° Northwest  Level Estimated
Sun 10:57:00 AM 43.8145 17.2332 322° Northwest  Level Estimated
Sun 10:58:00 AM 43.8886 17.1523 322° Northwest  Level Estimated
Sun 10:59:00 AM 43.9626 17.0712 322° Northwest  Level Estimated
Sun 11:00:00 AM 44.0366 16.9899 322° Northwest  Level Estimated
Sun 11:01:00 AM 44.1106 16.9084 322° Northwest  Level Estimated
Sun 11:02:00 AM 44.1844 16.8267 322° Northwest  Level Estimated
Sun 11:03:00 AM 44.2582 16.7448 322° Northwest  Level Estimated
Sun 11:04:00 AM 44.3320 16.6627 321° Northwest  Level Estimated
Sun 11:05:00 AM 44.4057 16.5804 321° Northwest  Level Estimated
Sun 11:06:00 AM 44.4793 16.4978 321° Northwest  Level Estimated
Sun 11:07:00 AM 44.5529 16.4151 321° Northwest  Level Estimated
Sun 11:08:00 AM 44.6264 16.3321 321° Northwest  Level Estimated
Sun 11:09:00 AM 44.6999 16.2490 321° Northwest  Level Estimated
Sun 11:10:00 AM 44.7733 16.1656 321° Northwest  Level Estimated
Sun 11:11:00 AM 44.8466 16.0820 321° Northwest  Level Estimated
Sun 11:12:00 AM 44.9199 15.9982 321° Northwest  Level Estimated
Sun 11:13:00 AM 44.9931 15.9142 321° Northwest  Level Estimated
Sun 11:14:00 AM 45.0662 15.8300 321° Northwest  Level Estimated
Sun 11:15:00 AM 45.1393 15.7456 321° Northwest  Level Estimated
Sun 11:16:00 AM 45.2123 15.6609 321° Northwest  Level Estimated
Sun 11:17:00 AM 45.2853 15.5760 321° Northwest  Level Estimated
Sun 11:18:00 AM 45.3582 15.4909 321° Northwest  Level Estimated
Sun 11:19:00 AM 45.4310 15.4056 321° Northwest  Level Estimated
Sun 11:20:00 AM 45.5038 15.3201 321° Northwest  Level Estimated
Sun 11:21:00 AM 45.5765 15.2343 320° Northwest  Level Estimated
Sun 11:22:00 AM 45.6492 15.1483 320° Northwest  Level Estimated
Sun 11:23:00 AM 45.7217 15.0621 320° Northwest  Level Estimated
Sun 11:24:00 AM 45.7943 14.9757 320° Northwest  Level Estimated
Sun 11:25:00 AM 45.8667 14.8891 320° Northwest  Level Estimated
Sun 11:26:00 AM 45.9391 14.8022 320° Northwest  Level Estimated
Sun 11:27:00 AM 46.0114 14.7151 320° Northwest  Level Estimated
Sun 11:28:00 AM 46.0836 14.6278 320° Northwest  Level Estimated
Sun 11:29:00 AM 46.1558 14.5402 320° Northwest  Level Estimated
Sun 11:30:00 AM 46.2237 14.4576 320° Northwest  Level Estimated
Sun 11:31:00 AM 46.2237 14.4576 North  Level Estimated
Sun 11:32:00 AM 46.2237 14.4576 North  Level Estimated
Sun 11:33:00 AM 46.2237 14.4576 North  Level Estimated
Sun 11:34:00 AM 46.2237 14.4576 North  Level Estimated
Sun 11:35:00 AM 46.2237 14.4576 North  Level Estimated
Sun 11:36:00 AM 46.2237 14.4576 North  Level Estimated

Login

Don't have an account? Register now (free) for customized features, flight alerts, and more!